createdAt,value
2022-08-22T00:01:15.172Z,35.43
2022-08-22T00:02:46.654Z,31.23
2022-08-22T00:02:58.382Z,32.00
2022-08-22T00:03:49.764Z,35.23
2022-08-22T00:06:35.673Z,35.42
2022-08-22T00:09:02.146Z,35.67
2022-08-22T00:11:31.641Z,35.59
2022-08-22T00:14:04.268Z,35.32
2022-08-22T00:16:42.428Z,35.13
2022-08-22T00:19:08.946Z,35.35
2022-08-22T00:21:43.233Z,35.09
2022-08-22T00:24:09.724Z,35.29
2022-08-22T00:26:45.096Z,35.70
2022-08-22T00:29:15.520Z,36.09
2022-08-22T00:31:45.765Z,36.33
2022-08-22T00:34:15.903Z,36.17
2022-08-22T00:36:50.972Z,36.07
2022-08-22T00:39:36.451Z,35.95
2022-08-22T00:42:31.241Z,36.17
2022-08-22T00:45:04.638Z,36.10
2022-08-22T00:47:43.338Z,35.83
2022-08-22T00:50:16.038Z,35.75
2022-08-22T00:52:55.036Z,36.06
2022-08-22T00:55:35.176Z,36.17
2022-08-22T00:58:19.434Z,35.86
2022-08-22T01:00:54.596Z,35.90
2022-08-22T01:03:30.585Z,35.78
2022-08-22T01:06:04.880Z,35.68
2022-08-22T01:08:39.550Z,35.83
2022-08-22T01:11:15.224Z,35.82
2022-08-22T01:13:53.954Z,35.82
2022-08-22T01:16:40.360Z,35.89
2022-08-22T01:19:25.820Z,36.15
2022-08-22T01:22:11.258Z,36.50
2022-08-22T01:25:11.509Z,36.04
2022-08-22T01:27:58.362Z,36.12
2022-08-22T01:30:46.776Z,35.97
2022-08-22T01:33:16.695Z,36.44
2022-08-22T01:36:02.139Z,36.26
2022-08-22T01:38:37.821Z,36.62
2022-08-22T01:41:17.260Z,36.74
2022-08-22T01:43:59.891Z,36.87
2022-08-22T01:46:33.511Z,36.74
2022-08-22T01:49:09.125Z,37.09
2022-08-22T01:51:45.013Z,37.15
2022-08-22T01:54:34.599Z,37.01
2022-08-22T01:57:02.867Z,37.11
2022-08-22T01:59:34.684Z,37.28
2022-08-22T02:02:25.281Z,37.49
2022-08-22T02:04:54.968Z,37.66
2022-08-22T02:07:32.219Z,37.74
2022-08-22T02:10:08.172Z,38.02
2022-08-22T02:12:42.853Z,38.03
2022-08-22T02:15:23.128Z,37.78
2022-08-22T02:18:03.136Z,37.86
2022-08-22T02:20:35.391Z,37.71
2022-08-22T02:23:07.868Z,37.80
2022-08-22T02:25:55.710Z,37.63
2022-08-22T02:28:31.094Z,37.58
2022-08-22T02:31:04.103Z,37.29
2022-08-22T02:33:50.576Z,37.38
2022-08-22T02:36:40.410Z,37.59
2022-08-22T02:39:25.767Z,37.65
2022-08-22T02:41:59.920Z,37.59
2022-08-22T02:44:30.175Z,37.78
2022-08-22T02:47:08.220Z,37.85
2022-08-22T02:49:34.920Z,38.06
2022-08-22T02:52:16.876Z,38.21
2022-08-22T02:54:46.467Z,38.09
2022-08-22T02:57:21.932Z,38.71
2022-08-22T03:00:02.172Z,38.31
2022-08-22T03:02:33.815Z,38.66
2022-08-22T03:05:16.239Z,38.88
2022-08-22T03:07:51.059Z,38.86
2022-08-22T03:10:23.406Z,39.25
2022-08-22T03:13:02.666Z,39.33
2022-08-22T03:15:31.988Z,39.83
2022-08-22T03:17:58.626Z,39.35
2022-08-22T03:20:40.605Z,39.96
2022-08-22T03:23:20.858Z,40.19
2022-08-22T03:26:07.688Z,39.53
2022-08-22T03:28:59.427Z,39.79
2022-08-22T03:31:27.725Z,39.52
2022-08-22T03:34:13.525Z,39.71
2022-08-22T03:36:45.741Z,39.58
2022-08-22T03:39:18.567Z,40.00
2022-08-22T03:42:05.364Z,39.78
2022-08-22T03:44:50.275Z,39.95
2022-08-22T03:47:40.882Z,40.06
2022-08-22T03:50:26.249Z,40.14
2022-08-22T03:53:19.065Z,40.16
2022-08-22T03:55:48.758Z,40.19
2022-08-22T03:58:34.061Z,40.30
2022-08-22T04:01:19.554Z,40.19
2022-08-22T04:04:01.371Z,40.97
2022-08-22T04:06:42.981Z,41.04
2022-08-22T04:09:35.852Z,40.73
2022-08-22T04:12:22.180Z,41.22
2022-08-22T04:14:48.781Z,40.81
2022-08-22T04:17:15.276Z,40.93
2022-08-22T04:19:57.041Z,40.88
2022-08-22T04:22:23.524Z,40.78
2022-08-22T04:24:52.972Z,41.06
2022-08-22T04:27:38.376Z,41.19
2022-08-22T04:30:22.938Z,40.95
2022-08-22T04:33:06.994Z,41.30
2022-08-22T04:35:43.020Z,41.38
2022-08-22T04:38:16.951Z,41.86
2022-08-22T04:40:46.803Z,41.41
2022-08-22T04:43:18.756Z,41.43
2022-08-22T04:45:53.279Z,41.49
2022-08-22T04:48:19.798Z,41.55
2022-08-22T04:51:03.088Z,41.58
2022-08-22T04:53:38.942Z,41.73
2022-08-22T04:56:27.288Z,41.89
2022-08-22T04:58:58.604Z,41.88
2022-08-22T05:01:37.380Z,42.25
2022-08-22T05:04:24.120Z,42.38
2022-08-22T05:06:53.739Z,42.17
2022-08-22T05:09:24.767Z,42.58
2022-08-22T05:11:54.091Z,41.93
2022-08-22T05:14:35.258Z,42.21
2022-08-22T05:17:04.342Z,41.98
2022-08-22T05:19:34.721Z,41.77
2022-08-22T05:22:02.125Z,42.01
2022-08-22T05:24:40.219Z,41.95
2022-08-22T05:27:11.836Z,41.82
2022-08-22T05:29:39.684Z,41.86
2022-08-22T05:32:07.917Z,41.78
2022-08-22T05:34:37.314Z,41.21
2022-08-22T05:37:11.963Z,41.41
2022-08-22T05:39:40.197Z,41.49
2022-08-22T05:42:12.720Z,41.61
2022-08-22T05:44:39.359Z,41.78
2022-08-22T05:47:23.330Z,42.26
2022-08-22T05:50:04.449Z,41.35
2022-08-22T05:52:49.924Z,41.27
2022-08-22T05:55:29.458Z,41.45
2022-08-22T05:58:14.951Z,41.52
2022-08-22T06:00:43.219Z,41.36
2022-08-22T06:03:20.679Z,41.18
2022-08-22T06:05:51.241Z,41.12
2022-08-22T06:08:30.133Z,40.91
2022-08-22T06:11:01.124Z,41.28
2022-08-22T06:13:43.134Z,40.88
2022-08-22T06:16:17.126Z,40.76
2022-08-22T06:18:45.172Z,40.56
2022-08-22T06:21:13.414Z,40.78
2022-08-22T06:23:43.985Z,40.51
2022-08-22T06:26:20.603Z,40.04
2022-08-22T06:28:55.354Z,40.25
2022-08-22T06:31:45.071Z,39.53
2022-08-22T06:34:14.163Z,39.01
2022-08-22T06:36:43.154Z,39.06
2022-08-22T06:39:18.837Z,38.70
2022-08-22T06:41:54.507Z,38.82
2022-08-22T06:44:23.879Z,38.97
2022-08-22T06:46:52.353Z,39.19
2022-08-22T06:49:20.872Z,39.26
2022-08-22T06:51:48.172Z,38.72
2022-08-22T06:54:17.942Z,35.05
2022-08-22T06:56:46.363Z,33.77
2022-08-22T06:59:14.746Z,33.58
2022-08-22T07:01:46.609Z,33.14
2022-08-22T07:04:14.036Z,33.39
2022-08-22T07:06:43.205Z,34.26
2022-08-22T07:09:30.831Z,34.49
2022-08-22T07:11:59.615Z,35.56
2022-08-22T07:14:28.538Z,36.43
2022-08-22T07:16:57.159Z,35.76
2022-08-22T07:19:26.862Z,35.24
2022-08-22T07:21:53.516Z,35.88
2022-08-22T07:24:22.528Z,35.73
2022-08-22T07:26:51.880Z,35.74
2022-08-22T07:29:41.576Z,34.84
2022-08-22T07:32:14.502Z,33.65
2022-08-22T07:34:56.122Z,32.92
2022-08-22T07:37:42.028Z,33.23
2022-08-22T07:40:18.929Z,32.66
2022-08-22T07:42:57.060Z,32.54
2022-08-22T07:45:23.559Z,31.92
2022-08-22T07:47:53.212Z,31.75
2022-08-22T07:50:22.956Z,31.83
2022-08-22T07:52:50.301Z,31.01
2022-08-22T07:55:19.159Z,31.58
2022-08-22T07:57:48.422Z,30.77
2022-08-22T08:00:18.307Z,31.62
2022-08-22T08:02:46.721Z,31.66
2022-08-22T08:05:14.619Z,31.77
2022-08-22T08:07:43.685Z,32.45
2022-08-22T08:10:13.908Z,32.39
2022-08-22T08:12:44.394Z,31.84
2022-08-22T08:15:25.346Z,32.04
2022-08-22T08:17:54.710Z,31.41
2022-08-22T08:20:23.315Z,31.35
2022-08-22T08:22:50.755Z,31.12
2022-08-22T08:25:22.773Z,31.19
2022-08-22T08:28:08.439Z,30.18
2022-08-22T08:30:44.462Z,30.81
2022-08-22T08:33:25.547Z,29.88
2022-08-22T08:36:02.540Z,28.08
2022-08-22T08:38:32.838Z,23.48
2022-08-22T08:41:08.568Z,21.16
2022-08-22T08:43:50.906Z,20.02
2022-08-22T08:46:20.507Z,18.56
2022-08-22T08:48:50.155Z,19.12
2022-08-22T08:51:28.787Z,17.94
2022-08-22T08:54:09.230Z,19.15
2022-08-22T08:56:47.397Z,19.45
2022-08-22T08:59:32.767Z,20.05
2022-08-22T09:02:08.636Z,18.95
2022-08-22T09:04:59.041Z,17.71
2022-08-22T09:07:42.397Z,16.68
2022-08-22T09:10:23.562Z,13.22
2022-08-22T09:13:11.143Z,11.66
2022-08-22T09:15:58.516Z,10.08
2022-08-22T09:18:50.983Z,9.70
2022-08-22T09:21:30.786Z,9.35
2022-08-22T09:24:09.752Z,9.18
2022-08-22T09:26:47.096Z,10.10
2022-08-22T09:29:54.654Z,12.17
2022-08-22T09:32:36.105Z,10.60
2022-08-22T09:35:22.373Z,10.07
2022-08-22T09:37:58.483Z,9.70
2022-08-22T09:40:31.480Z,8.96
2022-08-22T09:43:05.667Z,7.48
2022-08-22T09:45:35.516Z,7.56
2022-08-22T09:48:07.594Z,7.74
2022-08-22T09:50:34.423Z,7.97
2022-08-22T09:53:13.882Z,7.84
2022-08-22T09:55:59.428Z,6.92
2022-08-22T09:58:41.889Z,7.37
2022-08-22T10:01:32.801Z,6.45
2022-08-22T10:04:19.539Z,5.99
2022-08-22T10:06:46.364Z,5.57
2022-08-22T10:09:31.200Z,5.12
2022-08-22T10:11:58.538Z,4.83
2022-08-22T10:14:28.668Z,4.51
2022-08-22T10:17:21.602Z,4.65
2022-08-22T10:20:12.236Z,4.59
2022-08-22T10:22:47.304Z,4.75
2022-08-22T10:25:18.503Z,4.16
2022-08-22T10:28:00.184Z,4.85
2022-08-22T10:30:36.174Z,4.67
2022-08-22T10:33:06.843Z,4.03
2022-08-22T10:35:45.602Z,3.77
2022-08-22T10:38:18.406Z,3.13
2022-08-22T10:40:48.360Z,4.36
2022-08-22T10:43:20.967Z,4.60
2022-08-22T10:46:03.546Z,4.14
2022-08-22T10:48:35.571Z,3.74
2022-08-22T10:51:15.054Z,4.08
2022-08-22T10:53:54.114Z,3.34
2022-08-22T10:56:22.668Z,4.09
2022-08-22T10:59:08.519Z,4.38
2022-08-22T11:01:51.599Z,3.86
2022-08-22T11:04:18.363Z,3.12
2022-08-22T11:06:47.978Z,3.82
2022-08-22T11:09:28.254Z,3.59
2022-08-22T11:11:59.519Z,3.71
2022-08-22T11:14:55.014Z,4.61
2022-08-22T11:17:46.341Z,3.64
2022-08-22T11:20:27.033Z,4.78
2022-08-22T11:22:56.832Z,5.82
2022-08-22T11:25:58.032Z,6.46
2022-08-22T11:28:24.617Z,8.99
2022-08-22T11:30:51.147Z,8.93
2022-08-22T11:33:46.909Z,7.96
2022-08-22T11:36:46.674Z,7.35
2022-08-22T11:39:25.494Z,6.68
2022-08-22T11:41:59.910Z,7.28
2022-08-22T11:44:27.628Z,5.89
2022-08-22T11:46:57.285Z,5.29
2022-08-22T11:49:43.406Z,5.15
2022-08-22T11:52:10.015Z,5.72
2022-08-22T11:55:00.769Z,5.20
2022-08-22T11:57:30.330Z,6.33
2022-08-22T12:00:20.882Z,7.82
2022-08-22T12:03:08.936Z,10.00
2022-08-22T12:05:55.703Z,10.24
2022-08-22T12:08:25.276Z,10.22
2022-08-22T12:10:51.881Z,10.45
2022-08-22T12:13:34.823Z,12.09
2022-08-22T12:16:07.924Z,11.55
2022-08-22T12:18:58.956Z,13.70
2022-08-22T12:21:28.677Z,13.18
2022-08-22T12:23:55.741Z,14.54
2022-08-22T12:26:41.732Z,15.21
2022-08-22T12:29:28.578Z,15.40
2022-08-22T12:32:01.620Z,16.74
2022-08-22T12:34:51.576Z,16.42
2022-08-22T12:37:21.986Z,15.95
2022-08-22T12:39:52.189Z,16.69
2022-08-22T12:42:43.115Z,17.34
2022-08-22T12:45:31.476Z,16.28
2022-08-22T12:48:01.068Z,16.44
2022-08-22T12:50:28.937Z,17.75
2022-08-22T12:52:58.188Z,16.73
2022-08-22T12:55:45.741Z,16.60
2022-08-22T12:58:18.825Z,17.12
2022-08-22T13:00:47.400Z,17.65
2022-08-22T13:03:35.397Z,17.83
2022-08-22T13:06:04.745Z,18.00
2022-08-22T13:08:37.103Z,17.55
2022-08-22T13:11:22.762Z,18.11
2022-08-22T13:13:56.783Z,18.41
2022-08-22T13:16:24.933Z,18.17
2022-08-22T13:18:56.945Z,17.51
2022-08-22T13:21:31.420Z,18.15
2022-08-22T13:24:11.627Z,18.74
2022-08-22T13:26:46.517Z,18.18
2022-08-22T13:29:26.046Z,18.30
2022-08-22T13:31:58.330Z,18.02
2022-08-22T13:34:38.486Z,18.21
2022-08-22T13:37:08.186Z,17.83
2022-08-22T13:39:38.901Z,18.36
2022-08-22T13:42:14.186Z,18.39
2022-08-22T13:44:44.011Z,17.94
2022-08-22T13:47:14.968Z,17.43
2022-08-22T13:49:56.230Z,17.67
2022-08-22T13:52:32.355Z,17.39
2022-08-22T13:54:59.086Z,16.42
2022-08-22T13:57:28.406Z,16.26
2022-08-22T14:00:29.327Z,17.98
2022-08-22T14:03:05.550Z,16.90
2022-08-22T14:05:47.072Z,16.27
2022-08-22T14:08:33.976Z,16.93
2022-08-22T14:11:17.350Z,16.59
2022-08-22T14:13:46.977Z,17.73
2022-08-22T14:16:24.872Z,16.33
2022-08-22T14:18:59.209Z,17.52
2022-08-22T14:21:40.535Z,17.25
2022-08-22T14:24:47.982Z,17.79
2022-08-22T14:27:30.546Z,16.60
2022-08-22T14:30:01.306Z,16.31
2022-08-22T14:32:36.104Z,16.12
2022-08-22T14:35:35.049Z,16.05
2022-08-22T14:38:30.018Z,16.25
2022-08-22T14:41:05.754Z,16.21
2022-08-22T14:43:51.233Z,16.24
2022-08-22T14:46:46.234Z,17.34
2022-08-22T14:49:19.055Z,18.11
2022-08-22T14:51:51.119Z,17.60
2022-08-22T14:54:22.250Z,16.72
2022-08-22T14:56:50.341Z,16.61
2022-08-22T14:59:54.715Z,16.15
2022-08-22T15:02:44.639Z,16.94
2022-08-22T15:05:14.651Z,16.46
2022-08-22T15:07:52.505Z,16.74
2022-08-22T15:10:23.958Z,16.96
2022-08-22T15:12:53.846Z,16.94
2022-08-22T15:15:49.519Z,16.77
2022-08-22T15:18:28.002Z,17.18
2022-08-22T15:21:06.895Z,17.33
2022-08-22T15:23:45.347Z,17.32
2022-08-22T15:26:24.920Z,18.02
2022-08-22T15:29:07.141Z,17.92
2022-08-22T15:31:34.362Z,17.26
2022-08-22T15:34:13.018Z,17.18
2022-08-22T15:37:16.401Z,17.82
2022-08-22T15:40:21.914Z,17.81
2022-08-22T15:42:51.471Z,18.38
2022-08-22T15:45:22.881Z,18.26
2022-08-22T15:47:55.172Z,18.62
2022-08-22T15:50:33.696Z,18.81
2022-08-22T15:53:06.614Z,18.81
2022-08-22T15:55:34.700Z,18.53
2022-08-22T15:58:12.933Z,18.65
2022-08-22T16:00:43.715Z,18.78
2022-08-22T16:03:26.453Z,19.09
2022-08-22T16:05:58.021Z,19.00
2022-08-22T16:08:27.518Z,20.12
2022-08-22T16:11:16.094Z,19.55
2022-08-22T16:13:47.017Z,19.82
2022-08-22T16:16:33.969Z,20.57
2022-08-22T16:19:03.635Z,20.71
2022-08-22T16:21:30.279Z,20.32
2022-08-22T16:23:56.757Z,20.78
2022-08-22T16:26:29.375Z,20.95
2022-08-22T16:28:59.315Z,20.38
2022-08-22T16:31:37.862Z,21.15
2022-08-22T16:34:20.377Z,20.64
2022-08-22T16:36:47.282Z,20.59
2022-08-22T16:39:32.530Z,20.86
2022-08-22T16:42:14.955Z,20.79
2022-08-22T16:44:47.466Z,20.58
2022-08-22T16:47:16.903Z,20.68
2022-08-22T16:49:49.375Z,20.56
2022-08-22T16:52:25.196Z,20.95
2022-08-22T16:54:53.127Z,21.75
2022-08-22T16:57:44.474Z,21.17
2022-08-22T17:00:32.931Z,20.82
2022-08-22T17:03:06.749Z,20.59
2022-08-22T17:05:36.533Z,20.70
2022-08-22T17:08:22.026Z,20.83
2022-08-22T17:10:58.165Z,21.50
2022-08-22T17:13:32.988Z,21.08
2022-08-22T17:16:07.042Z,20.70
2022-08-22T17:18:50.122Z,21.15
2022-08-22T17:21:28.897Z,21.43
2022-08-22T17:23:55.378Z,21.17
2022-08-22T17:26:21.879Z,22.06
2022-08-22T17:28:51.571Z,21.07
2022-08-22T17:31:27.775Z,22.38
2022-08-22T17:34:02.552Z,22.33
2022-08-22T17:36:38.458Z,21.59
2022-08-22T17:39:19.441Z,21.66
2022-08-22T17:41:55.339Z,21.39
2022-08-22T17:44:28.508Z,22.13
2022-08-22T17:47:02.283Z,22.38
2022-08-22T17:49:49.263Z,21.67
2022-08-22T17:52:33.734Z,21.87
2022-08-22T17:55:18.261Z,21.76
2022-08-22T17:57:51.762Z,22.16
2022-08-22T18:00:33.264Z,22.56
2022-08-22T18:03:05.944Z,22.24
2022-08-22T18:05:35.431Z,22.02
2022-08-22T18:11:24.572Z,22.13
2022-08-22T18:13:55.019Z,22.32
2022-08-22T18:16:29.422Z,22.22
2022-08-22T18:19:01.957Z,22.27
2022-08-22T18:21:34.416Z,22.34
2022-08-22T18:24:03.515Z,22.80
2022-08-22T18:26:33.866Z,22.96
2022-08-22T18:29:20.433Z,23.29
2022-08-22T18:32:05.219Z,23.38
2022-08-22T18:35:02.536Z,23.25
2022-08-22T18:37:35.539Z,23.53
2022-08-22T18:40:08.469Z,23.21
2022-08-22T18:43:08.679Z,23.38
2022-08-22T18:45:47.573Z,23.52
2022-08-22T18:48:28.030Z,23.61
2022-08-22T18:51:12.869Z,23.82
2022-08-22T18:53:44.854Z,24.53
2022-08-22T18:56:19.362Z,24.11
2022-08-22T18:59:13.623Z,24.59
2022-08-22T19:02:03.558Z,24.15
2022-08-22T19:04:48.768Z,24.79
2022-08-22T19:07:31.131Z,24.58
2022-08-22T19:10:17.402Z,25.07
2022-08-22T19:13:00.414Z,24.32
2022-08-22T19:15:27.458Z,25.56
2022-08-22T19:17:59.515Z,25.55
2022-08-22T19:20:47.107Z,24.91
2022-08-22T19:23:31.967Z,25.30
2022-08-22T19:26:17.686Z,25.58
2022-08-22T19:28:44.265Z,24.98
2022-08-22T19:31:25.882Z,25.85
2022-08-22T19:34:11.165Z,25.71
2022-08-22T19:36:37.725Z,26.06
2022-08-22T19:39:24.786Z,25.85
2022-08-22T19:41:53.678Z,26.08
2022-08-22T19:44:20.261Z,25.73
2022-08-22T19:47:07.209Z,25.85
2022-08-22T19:49:38.668Z,25.63
2022-08-22T19:52:08.207Z,26.27
2022-08-22T19:54:41.643Z,25.79
2022-08-22T19:57:18.524Z,25.97
2022-08-22T19:59:53.869Z,26.23
2022-08-22T20:02:39.225Z,26.77
2022-08-22T20:05:18.194Z,26.62
2022-08-22T20:08:01.310Z,27.38
2022-08-22T20:10:47.012Z,26.76
2022-08-22T20:13:24.251Z,26.74
2022-08-22T20:16:03.095Z,26.79
2022-08-22T20:19:08.584Z,27.54
2022-08-22T20:21:41.165Z,27.66
2022-08-22T20:24:11.732Z,26.94
2022-08-22T20:26:52.098Z,26.52
2022-08-22T20:29:32.341Z,27.09
2022-08-22T20:31:59.142Z,26.22
2022-08-22T20:34:28.456Z,25.83
2022-08-22T20:37:22.649Z,26.47
2022-08-22T20:39:59.174Z,26.13
2022-08-22T20:42:30.650Z,25.98
2022-08-22T20:44:58.981Z,26.21
2022-08-22T20:47:32.321Z,26.37
2022-08-22T20:50:10.341Z,26.47
2022-08-22T20:52:38.508Z,26.30
2022-08-22T20:55:08.296Z,26.85
2022-08-22T20:57:43.394Z,27.13
2022-08-22T21:00:12.483Z,26.60
2022-08-22T21:02:42.256Z,26.29
2022-08-22T21:05:18.556Z,26.69
2022-08-22T21:07:46.499Z,27.21
2022-08-22T21:10:46.933Z,26.87
2022-08-22T21:13:22.981Z,27.25
2022-08-22T21:15:49.799Z,27.35
2022-08-22T21:18:36.824Z,27.54
2022-08-22T21:21:08.066Z,27.91
2022-08-22T21:23:45.484Z,27.64
2022-08-22T21:26:25.759Z,27.86
2022-08-22T21:28:57.493Z,27.45
2022-08-22T21:34:12.120Z,27.71
2022-08-22T21:36:38.856Z,28.32
2022-08-22T21:39:12.086Z,28.03
2022-08-22T21:41:41.545Z,27.88
2022-08-22T21:44:28.602Z,28.06
2022-08-22T21:46:55.583Z,28.42
2022-08-22T21:49:35.147Z,28.79
2022-08-22T21:52:02.028Z,28.46
2022-08-22T21:54:32.012Z,28.08
2022-08-22T21:57:16.923Z,28.34
2022-08-22T21:59:51.169Z,28.67
2022-08-22T22:02:25.076Z,28.09
2022-08-22T22:04:54.136Z,28.34
2022-08-22T22:07:20.869Z,28.27
2022-08-22T22:09:54.706Z,28.29
2022-08-22T22:12:22.377Z,28.22
2022-08-22T22:14:49.441Z,28.23
2022-08-22T22:17:16.761Z,28.14
2022-08-22T22:19:43.773Z,28.40
2022-08-22T22:22:10.676Z,28.20
2022-08-22T22:24:37.447Z,28.20
2022-08-22T22:27:04.596Z,28.78
2022-08-22T22:29:32.285Z,28.39
2022-08-22T22:31:59.564Z,28.33
2022-08-22T22:34:26.128Z,28.66
2022-08-22T22:36:53.621Z,28.49
2022-08-22T22:39:20.184Z,28.63
2022-08-22T22:41:46.725Z,28.94
2022-08-22T22:44:13.274Z,29.19
2022-08-22T22:46:39.858Z,28.82
2022-08-22T22:49:06.445Z,29.05
2022-08-22T22:51:33.158Z,28.64
2022-08-22T22:53:59.934Z,29.23
2022-08-22T22:56:27.485Z,29.34
2022-08-22T22:58:57.429Z,28.86
2022-08-22T23:01:28.006Z,29.32
2022-08-22T23:03:55.962Z,29.56
2022-08-22T23:06:23.882Z,29.20
2022-08-22T23:08:50.584Z,29.15
2022-08-22T23:11:35.670Z,29.55
2022-08-22T23:14:02.766Z,29.62
2022-08-22T23:16:32.928Z,29.79
2022-08-22T23:19:07.115Z,30.04
2022-08-22T23:21:33.957Z,30.06
2022-08-22T23:24:00.850Z,30.10
2022-08-22T23:26:28.166Z,30.69
2022-08-22T23:28:54.897Z,30.55
2022-08-22T23:31:32.446Z,30.47
2022-08-22T23:34:04.532Z,30.88
2022-08-22T23:36:31.380Z,30.78
2022-08-22T23:38:57.958Z,31.16
2022-08-22T23:41:24.731Z,30.91
2022-08-22T23:43:52.331Z,30.69
2022-08-22T23:46:20.008Z,31.38
2022-08-22T23:48:46.642Z,31.36
2022-08-22T23:51:14.255Z,31.67
2022-08-22T23:53:41.876Z,31.43
2022-08-22T23:56:19.887Z,31.68
2022-08-22T23:58:47.039Z,31.68
